메인 페이지
METAR-TAF:

METAR-TAF

공항 :

오펏 공군 기지

오마하, 네브래스카, 미국

위도: 41-07N, 경도: 095-54W, 고도: 319m

현재 날씨관측

예보는 54분 전, 10:56시(UTC)에 발표되었습니다.
남남동3kt
온도 -5°C
습도 86%
기압 1018 hPa
시정: 16.1km
맑음

METAR: KOFF 281056Z AUTO 15003KT 10SM CLR M05/M07 A3006 RMK AO2 SLP195 T10461075

시각: 06:50 (11:50 UTC)

예보

예보는 1 시간 50분 전, 10:00시(UTC)에 발표되었습니다.
예보 대상 시간: 28일 10시부터 29일 16시까지 (UTC)
남서6kt
시정 10km 이상
맑음
전환 중
28일 17시부터 28일 18시까지 (UTC)
여러 방향의 바람 6kt
시정 10km 이상
맑음
전환 중
29일 08시부터 29일 09시까지 (UTC)
6kt
시정: 8000m
고도 1500ft 상공 흐림
박무
전환 중
29일 12시부터 29일 13시까지 (UTC)
9kt
시정 10km 이상
고도 8000ft 상공 구름 많음

TAF: KOFF 281000Z 2810/2916 22006KT 9999 SKC QNH3001INS BECMG 2817/2818 VRB06KT 9999 SKC QNH2994INS BECMG 2908/2909 01006KT 8000 BR OVC015 QNH3006INS BECMG 2912/2913 36009KT 9999 NSW BKN080 QNH3009INS TX10/2820Z TNM04/2811Z

4,000개 이상의 공항 관측 자료 및 예보 (METAR 및 TAF 보고).

지도상에서 검색 가능한 기상관측소가 노란 점과 빨간 점으로 표시되어 있습니다.

기상관측소 명을 보려면 표시 위로 마우스를 이동하세요.

날씨 관측과 예보를 보려면 클릭하세요.

지도 변경 : 확대하려면 엑스 표시가 있는 녹색 버튼, 축소하려면 빼기 표시가 있는 녹색 버튼, 다음 페이지의 지도를 보려면 녹색 화살표를 클릭하세요.


METAR-TAF: